createdAt,value
2019-02-22T00:01:15.110Z,25.90
2019-02-22T00:03:44.392Z,28.00
2019-02-22T00:06:13.624Z,27.33
2019-02-22T00:08:42.935Z,27.33
2019-02-22T00:11:12.354Z,26.87
2019-02-22T00:13:41.591Z,28.77
2019-02-22T00:16:11.800Z,28.70
2019-02-22T00:18:41.047Z,26.00
2019-02-22T00:21:11.341Z,27.17
2019-02-22T00:23:40.577Z,28.80
2019-02-22T00:26:11.129Z,27.77
2019-02-22T00:28:40.607Z,26.60
2019-02-22T00:31:09.906Z,29.07
2019-02-22T00:33:39.142Z,27.83
2019-02-22T00:36:08.739Z,28.27
2019-02-22T00:38:38.140Z,27.97
2019-02-22T00:41:07.388Z,28.13
2019-02-22T00:43:36.622Z,26.03
2019-02-22T00:46:05.851Z,27.90
2019-02-22T00:48:35.116Z,28.80
2019-02-22T00:51:04.360Z,29.47
2019-02-22T00:53:33.576Z,28.40
2019-02-22T00:56:02.805Z,28.30
2019-02-22T00:58:32.060Z,28.10
2019-02-22T01:01:01.271Z,28.10
2019-02-22T01:03:31.588Z,26.87
2019-02-22T01:06:00.800Z,28.93
2019-02-22T01:08:30.040Z,30.67
2019-02-22T01:10:59.279Z,30.60
2019-02-22T01:13:28.500Z,29.97
2019-02-22T01:15:57.744Z,31.50
2019-02-22T01:18:26.956Z,28.70
2019-02-22T01:20:56.196Z,30.13
2019-02-22T01:23:25.443Z,30.00
2019-02-22T01:25:54.648Z,32.70
2019-02-22T01:28:23.888Z,30.80
2019-02-22T01:30:53.163Z,35.90
2019-02-22T01:33:22.404Z,31.37
2019-02-22T01:35:51.665Z,31.10
2019-02-22T01:38:22.038Z,36.73
2019-02-22T01:40:51.247Z,43.30
2019-02-22T01:43:20.743Z,40.23
2019-02-22T01:45:50.316Z,41.43
2019-02-22T01:48:19.595Z,43.87
2019-02-22T01:50:48.836Z,42.00
2019-02-22T01:53:18.080Z,44.10
2019-02-22T01:55:47.319Z,42.70
2019-02-22T01:58:16.491Z,45.00
2019-02-22T02:00:45.690Z,47.70
2019-02-22T02:03:14.875Z,46.77
2019-02-22T02:05:44.080Z,44.83
2019-02-22T02:08:13.301Z,45.27
2019-02-22T02:10:42.485Z,46.57
2019-02-22T02:13:11.696Z,48.33
2019-02-22T02:15:40.873Z,48.57
2019-02-22T02:18:10.077Z,43.53
2019-02-22T02:20:39.310Z,46.17
2019-02-22T02:23:08.557Z,45.53
2019-02-22T02:25:37.736Z,46.60
2019-02-22T02:28:07.989Z,45.87
2019-02-22T02:30:37.260Z,48.57
2019-02-22T02:33:06.464Z,47.37
2019-02-22T02:35:35.661Z,46.83
2019-02-22T02:38:04.849Z,46.67
2019-02-22T02:40:34.037Z,48.37
2019-02-22T02:43:03.274Z,50.40
2019-02-22T02:45:33.681Z,47.63
2019-02-22T02:48:02.873Z,45.37
2019-02-22T02:50:32.057Z,44.63
2019-02-22T02:53:01.574Z,49.37
2019-02-22T02:55:33.566Z,48.33
2019-02-22T02:58:02.937Z,47.67
2019-02-22T03:00:32.128Z,45.20
2019-02-22T03:03:01.310Z,47.10
2019-02-22T03:05:50.467Z,53.20
2019-02-22T03:08:20.320Z,48.43
2019-02-22T03:10:49.509Z,46.57
2019-02-22T03:13:18.715Z,47.70
2019-02-22T03:15:47.918Z,46.80
2019-02-22T03:18:17.097Z,44.97
2019-02-22T03:20:46.625Z,42.33
2019-02-22T03:23:15.810Z,45.43
2019-02-22T03:25:45.015Z,49.50
2019-02-22T03:28:14.445Z,46.80
2019-02-22T03:30:43.636Z,44.83
2019-02-22T03:33:13.130Z,44.73
2019-02-22T03:35:42.741Z,41.67
2019-02-22T03:38:11.936Z,42.93
2019-02-22T03:40:41.139Z,44.90
2019-02-22T03:43:10.353Z,43.83
2019-02-22T03:45:39.623Z,46.23
2019-02-22T03:48:08.806Z,43.90
2019-02-22T03:50:38.024Z,42.63
2019-02-22T03:53:08.848Z,43.40
2019-02-22T03:55:38.101Z,44.53
2019-02-22T03:58:07.369Z,41.80
2019-02-22T04:00:36.639Z,41.90
2019-02-22T04:03:05.828Z,41.63
2019-02-22T04:05:35.023Z,40.27
2019-02-22T04:08:07.015Z,40.13
2019-02-22T04:10:35.433Z,41.33
2019-02-22T04:13:04.642Z,38.43
2019-02-22T04:15:33.817Z,38.43
2019-02-22T04:18:03.039Z,39.80
2019-02-22T04:20:32.218Z,37.17
2019-02-22T04:23:01.424Z,35.53
2019-02-22T04:25:30.614Z,35.37
2019-02-22T04:27:59.814Z,32.13
2019-02-22T04:30:30.065Z,33.03
2019-02-22T04:32:59.271Z,34.20
2019-02-22T04:35:28.471Z,34.43
2019-02-22T04:37:57.695Z,33.13
2019-02-22T04:40:26.867Z,31.17
2019-02-22T04:42:56.060Z,31.07
2019-02-22T04:45:25.260Z,31.33
2019-02-22T04:47:54.455Z,30.47
2019-02-22T04:50:23.677Z,32.77
2019-02-22T04:52:52.881Z,31.40
2019-02-22T04:55:22.066Z,32.17
2019-02-22T04:57:51.259Z,29.77
2019-02-22T05:00:20.751Z,32.10
2019-02-22T05:02:49.961Z,31.30
2019-02-22T05:05:19.174Z,30.20
2019-02-22T05:07:48.396Z,31.13
2019-02-22T05:10:17.590Z,30.97
2019-02-22T05:12:46.773Z,30.63
2019-02-22T05:15:15.973Z,31.37
2019-02-22T05:17:45.171Z,31.23
2019-02-22T05:20:14.370Z,32.47
2019-02-22T05:22:43.577Z,30.57
2019-02-22T05:25:12.765Z,29.93
2019-02-22T05:27:41.977Z,31.57
2019-02-22T05:30:11.169Z,30.17
2019-02-22T05:32:40.370Z,31.40
2019-02-22T05:35:09.588Z,31.43
2019-02-22T05:37:38.776Z,28.67
2019-02-22T05:40:07.969Z,29.37
2019-02-22T05:42:37.175Z,27.77
2019-02-22T05:45:07.319Z,26.67
2019-02-22T05:47:36.506Z,28.20
2019-02-22T05:50:06.133Z,27.97
2019-02-22T05:52:35.336Z,27.80
2019-02-22T05:55:04.834Z,26.57
2019-02-22T05:57:34.027Z,27.03
2019-02-22T06:00:03.491Z,23.57
2019-02-22T06:02:34.012Z,25.80
2019-02-22T06:05:03.654Z,24.67
2019-02-22T06:07:32.845Z,23.13
2019-02-22T06:10:02.049Z,21.90
2019-02-22T06:12:34.825Z,23.13
2019-02-22T06:15:03.126Z,21.40
2019-02-22T06:17:32.586Z,22.13
2019-02-22T06:20:01.765Z,24.00
2019-02-22T06:22:30.977Z,23.77
2019-02-22T06:25:00.318Z,23.40
2019-02-22T06:27:29.572Z,25.40
2019-02-22T06:29:58.773Z,25.20
2019-02-22T06:32:27.974Z,22.90
2019-02-22T06:34:57.157Z,24.60
2019-02-22T06:37:26.358Z,25.13
2019-02-22T06:39:55.570Z,24.73
2019-02-22T06:42:24.780Z,27.93
2019-02-22T06:44:53.986Z,26.63
2019-02-22T06:47:23.184Z,27.20
2019-02-22T06:49:52.389Z,26.53
2019-02-22T06:52:21.654Z,27.03
2019-02-22T06:54:50.837Z,26.73
2019-02-22T06:57:20.047Z,26.57
2019-02-22T06:59:49.250Z,25.37
2019-02-22T07:02:18.469Z,24.20
2019-02-22T07:04:47.650Z,28.20
2019-02-22T07:07:16.854Z,27.17
2019-02-22T07:09:46.033Z,28.37
2019-02-22T07:12:35.352Z,28.00
2019-02-22T07:15:06.611Z,28.53
2019-02-22T07:17:35.790Z,28.73
2019-02-22T07:20:08.115Z,30.83
2019-02-22T07:22:37.313Z,28.60
2019-02-22T07:25:09.366Z,28.20
2019-02-22T07:27:38.568Z,27.57
2019-02-22T07:30:10.419Z,28.37
2019-02-22T07:32:39.736Z,30.80
2019-02-22T07:35:09.852Z,27.73
2019-02-22T07:37:39.266Z,27.37
2019-02-22T07:40:09.442Z,28.53
2019-02-22T07:42:38.885Z,27.70
2019-02-22T07:45:10.153Z,28.93
2019-02-22T07:47:39.334Z,24.90
2019-02-22T07:50:09.957Z,26.20
2019-02-22T07:52:39.157Z,22.87
2019-02-22T07:55:09.796Z,22.30
2019-02-22T07:57:40.134Z,24.17
2019-02-22T08:00:12.891Z,23.33
2019-02-22T08:02:42.088Z,20.27
2019-02-22T08:05:11.315Z,18.30
2019-02-22T08:07:40.500Z,19.83
2019-02-22T08:10:14.134Z,19.20
2019-02-22T08:12:43.328Z,20.23
2019-02-22T08:15:12.535Z,13.90
2019-02-22T08:17:41.726Z,13.77
2019-02-22T08:20:10.977Z,13.13
2019-02-22T08:22:40.174Z,14.00
2019-02-22T08:25:09.389Z,13.80
2019-02-22T08:27:41.718Z,8.67
2019-02-22T08:30:11.204Z,7.23
2019-02-22T08:32:40.404Z,6.07
2019-02-22T08:35:09.669Z,7.30
2019-02-22T08:37:38.849Z,4.10
2019-02-22T08:40:10.102Z,4.27
2019-02-22T08:42:39.302Z,4.10
2019-02-22T08:45:10.434Z,4.80
2019-02-22T08:47:39.602Z,4.00
2019-02-22T08:50:09.035Z,3.60
2019-02-22T08:52:38.230Z,3.53
2019-02-22T08:55:07.751Z,5.87
2019-02-22T08:57:36.946Z,4.60
2019-02-22T09:00:11.680Z,3.80
2019-02-22T09:02:40.911Z,3.70
2019-02-22T09:05:11.138Z,3.43
2019-02-22T09:07:40.356Z,3.10
2019-02-22T09:10:11.465Z,4.50
2019-02-22T09:12:40.661Z,3.63
2019-02-22T09:15:10.409Z,3.40
2019-02-22T09:17:40.569Z,4.80
2019-02-22T09:20:12.974Z,4.90
2019-02-22T09:22:42.154Z,4.60
2019-02-22T09:25:11.369Z,4.23
2019-02-22T09:27:40.554Z,4.60
2019-02-22T09:30:11.978Z,4.27
2019-02-22T09:32:41.164Z,4.83
2019-02-22T09:35:11.302Z,4.93
2019-02-22T09:37:40.486Z,4.53
2019-02-22T09:40:11.421Z,4.00
2019-02-22T09:42:40.619Z,4.50
2019-02-22T09:45:11.533Z,4.90
2019-02-22T09:47:40.719Z,3.87
2019-02-22T09:50:17.269Z,4.67
2019-02-22T09:52:46.475Z,4.57
2019-02-22T09:55:15.840Z,4.70
2019-02-22T09:57:45.048Z,4.20
2019-02-22T10:00:14.693Z,4.93
2019-02-22T10:02:44.778Z,5.03
2019-02-22T10:05:14.638Z,5.73
2019-02-22T10:07:45.042Z,6.63
2019-02-22T10:10:14.302Z,5.13
2019-02-22T10:12:43.483Z,5.23
2019-02-22T10:15:12.682Z,4.60
2019-02-22T10:17:42.837Z,4.53
2019-02-22T10:20:12.022Z,4.90
2019-02-22T10:22:41.214Z,4.77
2019-02-22T10:25:10.683Z,4.87
2019-02-22T10:27:39.892Z,5.83
2019-02-22T10:30:13.000Z,3.70
2019-02-22T10:32:42.471Z,3.90
2019-02-22T10:35:11.695Z,4.23
2019-02-22T10:37:40.888Z,3.53
2019-02-22T10:40:10.525Z,3.33
2019-02-22T10:42:39.699Z,3.97
2019-02-22T10:45:11.133Z,3.50
2019-02-22T10:47:40.326Z,3.83
2019-02-22T10:50:09.786Z,4.40
2019-02-22T10:52:38.955Z,3.10
2019-02-22T10:55:11.330Z,2.77
2019-02-22T10:57:40.614Z,2.57
2019-02-22T11:00:14.768Z,2.57
2019-02-22T11:02:44.017Z,2.63
2019-02-22T11:05:13.223Z,1.97
2019-02-22T11:07:42.402Z,2.30
2019-02-22T11:10:13.772Z,2.37
2019-02-22T11:12:43.125Z,2.53
2019-02-22T11:15:13.502Z,2.50
2019-02-22T11:17:42.679Z,1.93
2019-02-22T11:20:12.152Z,1.70
2019-02-22T11:22:41.344Z,2.10
2019-02-22T11:25:13.529Z,2.10
2019-02-22T11:27:42.701Z,2.10
2019-02-22T11:30:14.211Z,3.07
2019-02-22T11:32:43.386Z,2.30
2019-02-22T11:35:12.594Z,2.47
2019-02-22T11:37:41.790Z,2.00
2019-02-22T11:40:11.671Z,2.07
2019-02-22T11:42:40.904Z,1.40
2019-02-22T11:45:10.735Z,2.20
2019-02-22T11:47:39.920Z,1.80
2019-02-22T11:50:10.776Z,2.47
2019-02-22T11:52:40.041Z,4.20
2019-02-22T11:55:10.058Z,3.00
2019-02-22T11:57:39.415Z,1.77
2019-02-22T12:00:15.852Z,3.43
2019-02-22T12:02:45.897Z,3.50
2019-02-22T12:05:15.515Z,1.87
2019-02-22T12:07:44.689Z,1.40
2019-02-22T12:10:14.322Z,1.03
2019-02-22T12:12:43.489Z,1.40
2019-02-22T12:15:13.637Z,2.23
2019-02-22T12:17:42.992Z,1.63
2019-02-22T12:20:12.253Z,1.30
2019-02-22T12:22:41.454Z,1.70
2019-02-22T12:25:12.166Z,1.97
2019-02-22T12:27:41.361Z,1.53
2019-02-22T12:30:15.677Z,1.50
2019-02-22T12:32:44.867Z,1.87
2019-02-22T12:35:14.160Z,2.20
2019-02-22T12:37:43.306Z,2.93
2019-02-22T12:40:12.771Z,4.20
2019-02-22T12:42:41.988Z,3.20
2019-02-22T12:45:12.267Z,3.03
2019-02-22T12:47:41.436Z,3.83
2019-02-22T12:50:11.675Z,3.03
2019-02-22T12:52:41.164Z,4.03
2019-02-22T12:55:10.889Z,3.53
2019-02-22T12:57:40.085Z,3.37
2019-02-22T13:00:14.161Z,3.17
2019-02-22T13:02:43.427Z,3.13
2019-02-22T13:05:18.266Z,3.53
2019-02-22T13:07:47.476Z,6.30
2019-02-22T13:10:16.704Z,6.30
2019-02-22T13:12:46.112Z,9.83
2019-02-22T13:15:15.367Z,3.87
2019-02-22T13:17:44.596Z,5.10
2019-02-22T13:20:13.850Z,5.20
2019-02-22T13:22:43.040Z,3.90
2019-02-22T13:25:12.233Z,3.60
2019-02-22T13:27:41.419Z,4.20
2019-02-22T13:30:13.085Z,3.77
2019-02-22T13:32:42.368Z,3.43
2019-02-22T13:35:11.736Z,3.67
2019-02-22T13:37:41.170Z,3.83
2019-02-22T13:40:15.402Z,4.57
2019-02-22T13:42:44.661Z,4.60
2019-02-22T13:45:25.493Z,4.17
2019-02-22T13:47:45.314Z,3.50
2019-02-22T13:50:18.441Z,3.47
2019-02-22T13:52:47.659Z,3.57
2019-02-22T13:55:16.875Z,3.67
2019-02-22T13:57:46.038Z,3.47
2019-02-22T14:00:20.069Z,3.20
2019-02-22T14:02:49.267Z,4.40
2019-02-22T14:05:18.472Z,4.10
2019-02-22T14:07:57.366Z,4.37
2019-02-22T14:10:26.824Z,4.80
2019-02-22T14:12:56.026Z,4.50
2019-02-22T14:15:25.196Z,4.10
2019-02-22T14:17:54.389Z,4.63
2019-02-22T14:20:23.574Z,5.43
2019-02-22T14:22:52.765Z,4.73
2019-02-22T14:25:21.949Z,4.33
2019-02-22T14:27:52.215Z,4.40
2019-02-22T14:30:21.406Z,4.43
2019-02-22T14:32:50.597Z,4.90
2019-02-22T14:35:19.791Z,5.23
2019-02-22T14:37:49.007Z,4.00
2019-02-22T14:40:18.249Z,4.90
2019-02-22T14:42:47.832Z,5.00
2019-02-22T14:45:17.101Z,4.43
2019-02-22T14:47:46.359Z,4.87
2019-02-22T14:50:17.312Z,4.53
2019-02-22T14:52:46.549Z,5.20
2019-02-22T14:55:15.745Z,4.20
2019-02-22T14:57:45.451Z,4.50
2019-02-22T15:00:22.133Z,4.03
2019-02-22T15:02:52.305Z,4.90
2019-02-22T15:05:21.505Z,4.90
2019-02-22T15:07:51.458Z,5.53
2019-02-22T15:10:20.649Z,4.53
2019-02-22T15:12:49.854Z,6.40
2019-02-22T15:15:21.429Z,5.00
2019-02-22T15:17:58.273Z,5.17
2019-02-22T15:20:27.518Z,5.10
2019-02-22T15:22:56.726Z,4.80
2019-02-22T15:25:25.937Z,4.77
2019-02-22T15:27:55.118Z,4.77
2019-02-22T15:30:24.321Z,5.97
2019-02-22T15:32:53.510Z,4.60
2019-02-22T15:35:22.681Z,5.20
2019-02-22T15:37:51.881Z,5.40
2019-02-22T15:40:21.327Z,5.67
2019-02-22T15:42:51.597Z,4.73
2019-02-22T15:45:20.867Z,5.07
2019-02-22T15:47:50.181Z,5.40
2019-02-22T15:50:19.675Z,5.33
2019-02-22T15:52:50.042Z,4.53
2019-02-22T15:55:19.245Z,3.93
2019-02-22T15:57:48.413Z,5.07
2019-02-22T16:00:29.659Z,4.60
2019-02-22T16:02:58.867Z,5.00
2019-02-22T16:05:29.672Z,5.90
2019-02-22T16:07:58.862Z,5.33
2019-02-22T16:10:28.174Z,5.53
2019-02-22T16:12:57.441Z,5.70
2019-02-22T16:15:26.689Z,4.47
2019-02-22T16:17:55.889Z,7.73
2019-02-22T16:20:25.079Z,5.30
2019-02-22T16:22:54.285Z,4.80
2019-02-22T16:25:23.465Z,5.27
2019-02-22T16:27:53.561Z,6.17
2019-02-22T16:30:24.389Z,6.00
2019-02-22T16:32:53.562Z,6.00
2019-02-22T16:35:22.761Z,6.63
2019-02-22T16:37:52.004Z,6.53
2019-02-22T16:40:22.381Z,6.17
2019-02-22T16:42:51.589Z,5.67
2019-02-22T16:45:20.770Z,5.87
2019-02-22T16:47:49.965Z,6.47
2019-02-22T16:50:19.145Z,5.83
2019-02-22T16:52:48.361Z,5.57
2019-02-22T16:55:17.548Z,6.40
2019-02-22T16:57:47.080Z,6.93
2019-02-22T17:00:16.668Z,4.80
2019-02-22T17:02:45.858Z,4.87
2019-02-22T17:05:16.492Z,11.50
2019-02-22T17:07:45.747Z,6.33
2019-02-22T17:10:14.945Z,5.57
2019-02-22T17:12:44.158Z,6.33
2019-02-22T17:15:14.735Z,6.30
2019-02-22T17:17:43.915Z,6.00
2019-02-22T17:20:14.657Z,6.43
2019-02-22T17:22:43.838Z,7.20
2019-02-22T17:25:38.289Z,8.13
2019-02-22T17:28:07.924Z,7.60
2019-02-22T17:30:37.123Z,6.87
2019-02-22T17:33:06.294Z,6.77
2019-02-22T17:35:35.496Z,7.07
2019-02-22T17:38:05.738Z,6.30
2019-02-22T17:40:35.062Z,7.97
2019-02-22T17:43:04.415Z,8.10
2019-02-22T17:45:33.598Z,7.33
2019-02-22T17:48:02.797Z,7.43
2019-02-22T17:50:31.981Z,8.10
2019-02-22T17:53:01.927Z,9.47
2019-02-22T17:55:31.124Z,6.53
2019-02-22T17:58:00.294Z,7.23
2019-02-22T18:00:29.497Z,7.20
2019-02-22T18:02:58.674Z,7.17
2019-02-22T18:05:27.874Z,7.70
2019-02-22T18:07:57.062Z,8.30
2019-02-22T18:10:26.286Z,7.83
2019-02-22T18:12:55.466Z,6.33
2019-02-22T18:15:24.661Z,7.33
2019-02-22T18:17:53.843Z,6.73
2019-02-22T18:20:23.057Z,6.60
2019-02-22T18:22:52.281Z,6.43
2019-02-22T18:25:21.485Z,7.10
2019-02-22T18:27:50.970Z,7.10
2019-02-22T18:30:22.016Z,7.13
2019-02-22T18:32:51.214Z,7.40
2019-02-22T18:35:20.411Z,7.50
2019-02-22T18:37:49.590Z,8.13
2019-02-22T18:40:20.602Z,8.00
2019-02-22T18:42:50.058Z,7.53
2019-02-22T18:45:19.297Z,6.50
2019-02-22T18:47:48.497Z,7.20
2019-02-22T18:50:17.695Z,7.43
2019-02-22T18:52:46.893Z,8.17
2019-02-22T18:55:16.115Z,8.83
2019-02-22T18:57:45.312Z,7.03
2019-02-22T19:00:20.212Z,6.30
2019-02-22T19:02:49.513Z,7.87
2019-02-22T19:05:18.795Z,8.87
2019-02-22T19:07:48.112Z,8.40
2019-02-22T19:10:19.440Z,8.33
2019-02-22T19:12:48.640Z,6.50
2019-02-22T19:15:17.811Z,7.07
2019-02-22T19:17:47.147Z,6.83
2019-02-22T19:20:19.269Z,7.73
2019-02-22T19:22:48.455Z,7.67
2019-02-22T19:25:17.620Z,7.30
2019-02-22T19:27:46.856Z,6.57
2019-02-22T19:30:19.532Z,8.03
2019-02-22T19:32:48.726Z,8.70
2019-02-22T19:35:17.904Z,7.83
2019-02-22T19:37:47.213Z,8.30
2019-02-22T19:40:22.297Z,8.27
2019-02-22T19:42:51.476Z,7.83
2019-02-22T19:45:20.657Z,7.40
2019-02-22T19:47:49.851Z,7.47
2019-02-22T19:50:19.114Z,8.47
2019-02-22T19:52:48.366Z,7.63
2019-02-22T19:55:18.501Z,6.70
2019-02-22T19:57:47.670Z,7.30
2019-02-22T20:00:19.894Z,7.60
2019-02-22T20:02:49.074Z,7.23
2019-02-22T20:05:18.262Z,7.00
2019-02-22T20:07:48.078Z,8.60
2019-02-22T20:10:18.895Z,7.00
2019-02-22T20:12:48.356Z,8.83
2019-02-22T20:15:18.181Z,9.73
2019-02-22T20:17:53.921Z,10.97
2019-02-22T20:20:19.351Z,8.40
2019-02-22T20:22:51.560Z,9.40
2019-02-22T20:25:20.854Z,10.27
2019-02-22T20:27:50.059Z,8.80
2019-02-22T20:30:20.490Z,10.33
2019-02-22T20:32:49.669Z,12.50
2019-02-22T20:35:26.878Z,9.77
2019-02-22T20:37:56.380Z,9.60
2019-02-22T20:40:25.942Z,9.00
2019-02-22T20:42:55.296Z,10.17
2019-02-22T20:45:24.495Z,9.67
2019-02-22T20:48:04.527Z,9.03
2019-02-22T20:50:25.870Z,9.87
2019-02-22T20:52:55.041Z,8.37
2019-02-22T20:55:24.240Z,7.90
2019-02-22T20:57:53.421Z,7.67
2019-02-22T21:00:27.209Z,6.55
2019-02-22T21:02:56.475Z,7.42
2019-02-22T21:05:25.738Z,7.60
2019-02-22T21:07:54.931Z,7.73
2019-02-22T21:10:24.113Z,7.70
2019-02-22T21:12:53.375Z,8.20
2019-02-22T21:15:22.547Z,8.60
2019-02-22T21:17:51.753Z,8.10
2019-02-22T21:20:22.276Z,7.27
2019-02-22T21:22:51.429Z,7.70
2019-02-22T21:25:20.617Z,8.83
2019-02-22T21:27:49.805Z,6.90
2019-02-22T21:30:20.413Z,7.00
2019-02-22T21:32:49.611Z,9.77
2019-02-22T21:35:18.779Z,9.30
2019-02-22T21:37:48.015Z,7.90
2019-02-22T21:40:17.185Z,6.67
2019-02-22T21:42:46.390Z,7.03
2019-02-22T21:45:16.502Z,5.47
2019-02-22T21:47:54.135Z,6.60
2019-02-22T21:50:17.217Z,5.90
2019-02-22T21:52:46.396Z,7.07
2019-02-22T21:55:17.220Z,5.93
2019-02-22T21:57:46.566Z,6.40
2019-02-22T22:00:27.614Z,5.97
2019-02-22T22:02:56.831Z,6.50
2019-02-22T22:05:26.004Z,6.23
2019-02-22T22:07:55.176Z,6.57
2019-02-22T22:10:24.351Z,7.37
2019-02-22T22:12:53.561Z,6.70
2019-02-22T22:15:22.724Z,5.80
2019-02-22T22:17:51.907Z,6.80
2019-02-22T22:20:21.109Z,5.90
2019-02-22T22:22:50.305Z,6.23
2019-02-22T22:25:19.494Z,6.60
2019-02-22T22:27:48.682Z,7.00
2019-02-22T22:30:17.858Z,6.57
2019-02-22T22:32:47.049Z,6.20
2019-02-22T22:35:17.359Z,6.50
2019-02-22T22:37:47.524Z,6.53
2019-02-22T22:40:16.715Z,6.03
2019-02-22T22:42:45.888Z,5.73
2019-02-22T22:45:16.461Z,6.40
2019-02-22T22:47:45.689Z,6.30
2019-02-22T22:50:16.535Z,6.40
2019-02-22T22:52:45.729Z,6.60
2019-02-22T22:55:14.957Z,6.77
2019-02-22T22:57:44.157Z,7.00
2019-02-22T23:00:51.344Z,5.73
2019-02-22T23:03:21.622Z,6.67
2019-02-22T23:05:52.182Z,7.10
2019-02-22T23:08:21.436Z,6.60
2019-02-22T23:10:50.699Z,6.80
2019-02-22T23:13:21.658Z,7.13
2019-02-22T23:15:50.852Z,7.50
2019-02-22T23:18:20.033Z,7.90
2019-02-22T23:20:49.522Z,7.27
2019-02-22T23:23:18.721Z,6.63
2019-02-22T23:25:47.980Z,7.13
2019-02-22T23:28:18.202Z,6.73
2019-02-22T23:30:47.402Z,7.70
2019-02-22T23:33:16.854Z,7.43
2019-02-22T23:35:46.084Z,7.23
2019-02-22T23:38:15.276Z,7.60
2019-02-22T23:40:44.451Z,7.53
2019-02-22T23:43:13.954Z,8.13
2019-02-22T23:45:43.207Z,7.30
2019-02-22T23:48:12.459Z,7.60
2019-02-22T23:50:41.638Z,8.10
2019-02-22T23:53:10.828Z,7.17
2019-02-22T23:55:40.006Z,8.03
2019-02-22T23:58:09.167Z,8.20
